sensor_id;sensor_type;location;lat;lon;timestamp;P1;durP1;ratioP1;P2;durP2;ratioP2
8044;SDS011;4065;48.754;9.982;2023-05-07T00:02:33;2.92;;;2.70;;
8044;SDS011;4065;48.754;9.982;2023-05-07T00:05:55;3.00;;;2.78;;
8044;SDS011;4065;48.754;9.982;2023-05-07T00:09:17;3.30;;;3.00;;
8044;SDS011;4065;48.754;9.982;2023-05-07T00:12:39;3.25;;;3.03;;
8044;SDS011;4065;48.754;9.982;2023-05-07T00:16:03;3.30;;;3.00;;
8044;SDS011;4065;48.754;9.982;2023-05-07T00:19:25;4.03;;;3.00;;
8044;SDS011;4065;48.754;9.982;2023-05-07T00:22:47;3.47;;;3.20;;
8044;SDS011;4065;48.754;9.982;2023-05-07T00:26:09;4.40;;;3.63;;
8044;SDS011;4065;48.754;9.982;2023-05-07T00:29:31;3.92;;;3.03;;
8044;SDS011;4065;48.754;9.982;2023-05-07T00:32:54;7.72;;;2.95;;
8044;SDS011;4065;48.754;9.982;2023-05-07T00:36:16;3.80;;;3.10;;
8044;SDS011;4065;48.754;9.982;2023-05-07T00:39:38;3.58;;;2.88;;
8044;SDS011;4065;48.754;9.982;2023-05-07T00:43:00;6.60;;;2.90;;
8044;SDS011;4065;48.754;9.982;2023-05-07T00:46:22;3.53;;;2.85;;
8044;SDS011;4065;48.754;9.982;2023-05-07T00:49:45;3.28;;;2.88;;
8044;SDS011;4065;48.754;9.982;2023-05-07T00:53:07;3.58;;;3.00;;
8044;SDS011;4065;48.754;9.982;2023-05-07T00:56:29;3.30;;;3.00;;
8044;SDS011;4065;48.754;9.982;2023-05-07T00:59:51;3.15;;;2.75;;
8044;SDS011;4065;48.754;9.982;2023-05-07T01:03:13;3.45;;;3.05;;
8044;SDS011;4065;48.754;9.982;2023-05-07T01:06:36;3.60;;;2.80;;
8044;SDS011;4065;48.754;9.982;2023-05-07T01:09:59;3.55;;;3.25;;
8044;SDS011;4065;48.754;9.982;2023-05-07T01:13:21;3.13;;;2.85;;
8044;SDS011;4065;48.754;9.982;2023-05-07T01:16:44;2.88;;;2.67;;
8044;SDS011;4065;48.754;9.982;2023-05-07T01:20:07;3.67;;;3.15;;
8044;SDS011;4065;48.754;9.982;2023-05-07T01:23:31;4.70;;;3.20;;
8044;SDS011;4065;48.754;9.982;2023-05-07T01:26:54;3.28;;;2.97;;
8044;SDS011;4065;48.754;9.982;2023-05-07T01:30:16;3.45;;;3.03;;
8044;SDS011;4065;48.754;9.982;2023-05-07T01:33:40;3.92;;;3.10;;
8044;SDS011;4065;48.754;9.982;2023-05-07T01:37:02;4.35;;;2.80;;
8044;SDS011;4065;48.754;9.982;2023-05-07T01:40:26;3.33;;;3.00;;
8044;SDS011;4065;48.754;9.982;2023-05-07T01:43:49;3.08;;;2.88;;
8044;SDS011;4065;48.754;9.982;2023-05-07T01:47:11;3.70;;;3.08;;
8044;SDS011;4065;48.754;9.982;2023-05-07T01:50:34;4.20;;;3.00;;
8044;SDS011;4065;48.754;9.982;2023-05-07T01:53:56;4.50;;;2.80;;
8044;SDS011;4065;48.754;9.982;2023-05-07T01:57:19;4.13;;;2.97;;
8044;SDS011;4065;48.754;9.982;2023-05-07T02:00:41;2.80;;;2.60;;
8044;SDS011;4065;48.754;9.982;2023-05-07T02:04:03;3.15;;;2.95;;
8044;SDS011;4065;48.754;9.982;2023-05-07T02:07:25;2.85;;;2.60;;
8044;SDS011;4065;48.754;9.982;2023-05-07T02:10:47;4.35;;;2.70;;
8044;SDS011;4065;48.754;9.982;2023-05-07T02:14:11;3.50;;;3.17;;
8044;SDS011;4065;48.754;9.982;2023-05-07T02:17:33;3.08;;;2.83;;
8044;SDS011;4065;48.754;9.982;2023-05-07T02:20:55;4.57;;;3.40;;
8044;SDS011;4065;48.754;9.982;2023-05-07T02:24:17;4.63;;;3.35;;
8044;SDS011;4065;48.754;9.982;2023-05-07T02:27:39;7.40;;;3.00;;
8044;SDS011;4065;48.754;9.982;2023-05-07T02:31:03;3.40;;;3.08;;
8044;SDS011;4065;48.754;9.982;2023-05-07T02:34:26;4.82;;;3.13;;
8044;SDS011;4065;48.754;9.982;2023-05-07T02:37:48;5.32;;;2.83;;
8044;SDS011;4065;48.754;9.982;2023-05-07T02:41:09;3.53;;;3.22;;
8044;SDS011;4065;48.754;9.982;2023-05-07T02:44:31;3.97;;;2.90;;
8044;SDS011;4065;48.754;9.982;2023-05-07T02:47:54;5.80;;;3.40;;
8044;SDS011;4065;48.754;9.982;2023-05-07T02:51:17;4.32;;;3.00;;
8044;SDS011;4065;48.754;9.982;2023-05-07T02:54:41;4.18;;;3.30;;
8044;SDS011;4065;48.754;9.982;2023-05-07T02:58:03;4.70;;;4.30;;
8044;SDS011;4065;48.754;9.982;2023-05-07T03:01:25;7.05;;;4.55;;
8044;SDS011;4065;48.754;9.982;2023-05-07T03:04:48;4.95;;;4.10;;
8044;SDS011;4065;48.754;9.982;2023-05-07T03:08:10;4.05;;;3.58;;
8044;SDS011;4065;48.754;9.982;2023-05-07T03:11:32;3.72;;;3.10;;
8044;SDS011;4065;48.754;9.982;2023-05-07T03:14:55;4.30;;;3.22;;
8044;SDS011;4065;48.754;9.982;2023-05-07T03:18:17;4.85;;;3.35;;
8044;SDS011;4065;48.754;9.982;2023-05-07T03:21:40;3.20;;;2.90;;
8044;SDS011;4065;48.754;9.982;2023-05-07T03:25:03;3.60;;;3.22;;
8044;SDS011;4065;48.754;9.982;2023-05-07T03:28:25;3.15;;;2.85;;
8044;SDS011;4065;48.754;9.982;2023-05-07T03:31:47;3.72;;;3.35;;
8044;SDS011;4065;48.754;9.982;2023-05-07T03:35:09;4.13;;;3.38;;
8044;SDS011;4065;48.754;9.982;2023-05-07T03:38:32;3.78;;;3.08;;
8044;SDS011;4065;48.754;9.982;2023-05-07T03:41:54;4.10;;;2.92;;
8044;SDS011;4065;48.754;9.982;2023-05-07T03:45:16;3.72;;;3.25;;
8044;SDS011;4065;48.754;9.982;2023-05-07T03:48:37;4.50;;;4.20;;
8044;SDS011;4065;48.754;9.982;2023-05-07T03:51:59;3.83;;;3.40;;
8044;SDS011;4065;48.754;9.982;2023-05-07T03:55:23;3.80;;;3.50;;
8044;SDS011;4065;48.754;9.982;2023-05-07T03:58:45;3.70;;;3.40;;
8044;SDS011;4065;48.754;9.982;2023-05-07T04:02:07;3.70;;;3.33;;
8044;SDS011;4065;48.754;9.982;2023-05-07T04:05:29;3.83;;;3.53;;
8044;SDS011;4065;48.754;9.982;2023-05-07T04:08:51;3.30;;;3.00;;
8044;SDS011;4065;48.754;9.982;2023-05-07T04:12:14;4.45;;;3.65;;
8044;SDS011;4065;48.754;9.982;2023-05-07T04:15:36;4.05;;;3.60;;
8044;SDS011;4065;48.754;9.982;2023-05-07T04:18:58;9.13;;;8.35;;
8044;SDS011;4065;48.754;9.982;2023-05-07T04:22:20;6.38;;;5.80;;
8044;SDS011;4065;48.754;9.982;2023-05-07T04:25:42;4.20;;;3.90;;
8044;SDS011;4065;48.754;9.982;2023-05-07T04:29:05;4.97;;;4.40;;
8044;SDS011;4065;48.754;9.982;2023-05-07T04:32:27;5.22;;;4.10;;
8044;SDS011;4065;48.754;9.982;2023-05-07T04:35:49;5.40;;;4.90;;
8044;SDS011;4065;48.754;9.982;2023-05-07T04:39:11;6.25;;;5.65;;
8044;SDS011;4065;48.754;9.982;2023-05-07T04:42:33;5.85;;;5.35;;
8044;SDS011;4065;48.754;9.982;2023-05-07T04:45:57;5.65;;;5.25;;
8044;SDS011;4065;48.754;9.982;2023-05-07T04:49:19;7.10;;;5.78;;
8044;SDS011;4065;48.754;9.982;2023-05-07T04:52:41;6.07;;;5.60;;
8044;SDS011;4065;48.754;9.982;2023-05-07T04:56:03;5.95;;;5.43;;
8044;SDS011;4065;48.754;9.982;2023-05-07T04:59:25;6.07;;;5.47;;
8044;SDS011;4065;48.754;9.982;2023-05-07T05:02:49;5.55;;;5.05;;
8044;SDS011;4065;48.754;9.982;2023-05-07T05:06:11;5.55;;;4.90;;
8044;SDS011;4065;48.754;9.982;2023-05-07T05:09:32;5.78;;;5.30;;
8044;SDS011;4065;48.754;9.982;2023-05-07T05:12:54;6.15;;;5.45;;
8044;SDS011;4065;48.754;9.982;2023-05-07T05:16:22;5.78;;;5.35;;
8044;SDS011;4065;48.754;9.982;2023-05-07T05:19:45;6.30;;;5.70;;
8044;SDS011;4065;48.754;9.982;2023-05-07T05:23:07;6.13;;;5.53;;
8044;SDS011;4065;48.754;9.982;2023-05-07T05:26:30;5.28;;;4.78;;
8044;SDS011;4065;48.754;9.982;2023-05-07T05:29:52;5.07;;;4.57;;
8044;SDS011;4065;48.754;9.982;2023-05-07T05:33:16;4.85;;;4.45;;
8044;SDS011;4065;48.754;9.982;2023-05-07T05:36:39;6.45;;;5.15;;
8044;SDS011;4065;48.754;9.982;2023-05-07T05:40:01;6.45;;;5.00;;
8044;SDS011;4065;48.754;9.982;2023-05-07T05:43:24;5.22;;;4.72;;
8044;SDS011;4065;48.754;9.982;2023-05-07T05:46:46;7.65;;;4.95;;
8044;SDS011;4065;48.754;9.982;2023-05-07T05:50:09;6.63;;;5.22;;
8044;SDS011;4065;48.754;9.982;2023-05-07T05:53:33;5.72;;;5.22;;
8044;SDS011;4065;48.754;9.982;2023-05-07T05:56:55;7.13;;;5.68;;
8044;SDS011;4065;48.754;9.982;2023-05-07T06:00:17;5.85;;;5.20;;
8044;SDS011;4065;48.754;9.982;2023-05-07T06:03:42;5.88;;;5.38;;
8044;SDS011;4065;48.754;9.982;2023-05-07T06:07:04;6.70;;;5.55;;
8044;SDS011;4065;48.754;9.982;2023-05-07T06:10:30;6.28;;;5.68;;
8044;SDS011;4065;48.754;9.982;2023-05-07T06:13:53;5.93;;;5.32;;
8044;SDS011;4065;48.754;9.982;2023-05-07T06:17:15;5.97;;;4.72;;
8044;SDS011;4065;48.754;9.982;2023-05-07T06:20:42;4.50;;;4.10;;
8044;SDS011;4065;48.754;9.982;2023-05-07T06:24:04;4.97;;;4.47;;
8044;SDS011;4065;48.754;9.982;2023-05-07T06:27:28;4.95;;;4.22;;
8044;SDS011;4065;48.754;9.982;2023-05-07T06:30:49;4.13;;;3.72;;
8044;SDS011;4065;48.754;9.982;2023-05-07T06:34:11;4.32;;;3.90;;
8044;SDS011;4065;48.754;9.982;2023-05-07T06:37:34;3.67;;;3.30;;
8044;SDS011;4065;48.754;9.982;2023-05-07T06:40:58;4.05;;;3.70;;
8044;SDS011;4065;48.754;9.982;2023-05-07T06:44:21;4.20;;;3.53;;
8044;SDS011;4065;48.754;9.982;2023-05-07T06:47:43;3.95;;;3.50;;
8044;SDS011;4065;48.754;9.982;2023-05-07T06:51:05;4.60;;;3.65;;
8044;SDS011;4065;48.754;9.982;2023-05-07T06:54:28;4.82;;;3.20;;
8044;SDS011;4065;48.754;9.982;2023-05-07T06:57:53;3.28;;;2.97;;
8044;SDS011;4065;48.754;9.982;2023-05-07T07:01:16;3.30;;;2.97;;
8044;SDS011;4065;48.754;9.982;2023-05-07T07:04:38;3.47;;;3.20;;
8044;SDS011;4065;48.754;9.982;2023-05-07T07:08:00;4.18;;;3.20;;
8044;SDS011;4065;48.754;9.982;2023-05-07T07:11:22;6.32;;;3.53;;
8044;SDS011;4065;48.754;9.982;2023-05-07T07:14:44;3.85;;;3.22;;
8044;SDS011;4065;48.754;9.982;2023-05-07T07:18:07;3.60;;;3.30;;
8044;SDS011;4065;48.754;9.982;2023-05-07T07:21:29;5.28;;;4.10;;
8044;SDS011;4065;48.754;9.982;2023-05-07T07:24:52;4.68;;;3.83;;
8044;SDS011;4065;48.754;9.982;2023-05-07T07:28:14;5.28;;;4.15;;
8044;SDS011;4065;48.754;9.982;2023-05-07T07:31:36;5.10;;;4.25;;
8044;SDS011;4065;48.754;9.982;2023-05-07T07:35:01;4.63;;;3.90;;
8044;SDS011;4065;48.754;9.982;2023-05-07T07:38:25;4.68;;;3.60;;
8044;SDS011;4065;48.754;9.982;2023-05-07T07:41:48;4.65;;;4.20;;
8044;SDS011;4065;48.754;9.982;2023-05-07T07:45:10;4.45;;;4.05;;
8044;SDS011;4065;48.754;9.982;2023-05-07T07:48:35;3.78;;;3.33;;
8044;SDS011;4065;48.754;9.982;2023-05-07T07:51:58;5.45;;;4.35;;
8044;SDS011;4065;48.754;9.982;2023-05-07T07:55:20;6.13;;;4.57;;
8044;SDS011;4065;48.754;9.982;2023-05-07T07:58:43;4.90;;;4.15;;
8044;SDS011;4065;48.754;9.982;2023-05-07T08:02:05;4.57;;;3.85;;
8044;SDS011;4065;48.754;9.982;2023-05-07T08:05:27;5.07;;;4.18;;
8044;SDS011;4065;48.754;9.982;2023-05-07T08:08:51;6.43;;;3.80;;
8044;SDS011;4065;48.754;9.982;2023-05-07T08:12:13;5.07;;;3.60;;
8044;SDS011;4065;48.754;9.982;2023-05-07T08:15:35;5.25;;;3.83;;
8044;SDS011;4065;48.754;9.982;2023-05-07T08:18:57;4.53;;;3.33;;
8044;SDS011;4065;48.754;9.982;2023-05-07T08:22:20;3.65;;;3.35;;
8044;SDS011;4065;48.754;9.982;2023-05-07T08:25:47;3.30;;;2.72;;
8044;SDS011;4065;48.754;9.982;2023-05-07T08:29:09;5.55;;;3.58;;
8044;SDS011;4065;48.754;9.982;2023-05-07T08:32:31;7.03;;;3.60;;
8044;SDS011;4065;48.754;9.982;2023-05-07T08:35:53;6.18;;;3.40;;
8044;SDS011;4065;48.754;9.982;2023-05-07T08:39:15;3.97;;;3.58;;
8044;SDS011;4065;48.754;9.982;2023-05-07T08:42:39;5.35;;;3.30;;
8044;SDS011;4065;48.754;9.982;2023-05-07T08:46:03;3.80;;;3.03;;
8044;SDS011;4065;48.754;9.982;2023-05-07T08:49:26;4.07;;;2.80;;
8044;SDS011;4065;48.754;9.982;2023-05-07T08:52:48;4.72;;;3.10;;
8044;SDS011;4065;48.754;9.982;2023-05-07T08:56:10;3.97;;;2.85;;
8044;SDS011;4065;48.754;9.982;2023-05-07T08:59:37;4.55;;;3.40;;
8044;SDS011;4065;48.754;9.982;2023-05-07T09:02:59;3.88;;;2.90;;
8044;SDS011;4065;48.754;9.982;2023-05-07T09:06:21;3.72;;;2.63;;
8044;SDS011;4065;48.754;9.982;2023-05-07T09:09:44;2.72;;;2.53;;
8044;SDS011;4065;48.754;9.982;2023-05-07T09:13:06;3.20;;;2.60;;
8044;SDS011;4065;48.754;9.982;2023-05-07T09:16:40;2.70;;;2.50;;
8044;SDS011;4065;48.754;9.982;2023-05-07T09:20:07;3.05;;;2.50;;
8044;SDS011;4065;48.754;9.982;2023-05-07T09:23:31;3.08;;;2.38;;
8044;SDS011;4065;48.754;9.982;2023-05-07T09:26:53;4.30;;;2.30;;
8044;SDS011;4065;48.754;9.982;2023-05-07T09:30:16;3.17;;;2.20;;
8044;SDS011;4065;48.754;9.982;2023-05-07T09:33:42;3.67;;;2.40;;
8044;SDS011;4065;48.754;9.982;2023-05-07T09:37:12;2.70;;;2.30;;
8044;SDS011;4065;48.754;9.982;2023-05-07T09:40:34;3.30;;;2.35;;
8044;SDS011;4065;48.754;9.982;2023-05-07T09:43:57;3.17;;;2.33;;
8044;SDS011;4065;48.754;9.982;2023-05-07T09:47:20;2.92;;;1.90;;
8044;SDS011;4065;48.754;9.982;2023-05-07T09:50:48;2.67;;;1.90;;
8044;SDS011;4065;48.754;9.982;2023-05-07T09:54:11;3.75;;;2.25;;
8044;SDS011;4065;48.754;9.982;2023-05-07T09:57:33;2.05;;;1.88;;
8044;SDS011;4065;48.754;9.982;2023-05-07T10:00:56;4.90;;;2.30;;
8044;SDS011;4065;48.754;9.982;2023-05-07T10:04:18;2.80;;;2.17;;
8044;SDS011;4065;48.754;9.982;2023-05-07T10:07:43;5.00;;;2.40;;
8044;SDS011;4065;48.754;9.982;2023-05-07T10:11:05;3.03;;;1.90;;
8044;SDS011;4065;48.754;9.982;2023-05-07T10:14:27;2.45;;;2.17;;
8044;SDS011;4065;48.754;9.982;2023-05-07T10:17:53;3.05;;;2.25;;
8044;SDS011;4065;48.754;9.982;2023-05-07T10:21:16;2.97;;;2.00;;
8044;SDS011;4065;48.754;9.982;2023-05-07T10:24:40;3.22;;;2.15;;
8044;SDS011;4065;48.754;9.982;2023-05-07T10:28:04;1.98;;;1.77;;
8044;SDS011;4065;48.754;9.982;2023-05-07T10:31:37;3.03;;;2.47;;
8044;SDS011;4065;48.754;9.982;2023-05-07T10:35:14;2.53;;;2.33;;
8044;SDS011;4065;48.754;9.982;2023-05-07T10:38:41;2.72;;;2.22;;
8044;SDS011;4065;48.754;9.982;2023-05-07T10:42:09;2.10;;;1.90;;
8044;SDS011;4065;48.754;9.982;2023-05-07T10:45:34;2.45;;;1.90;;
8044;SDS011;4065;48.754;9.982;2023-05-07T10:49:09;2.35;;;2.13;;
8044;SDS011;4065;48.754;9.982;2023-05-07T10:52:35;4.43;;;2.45;;
8044;SDS011;4065;48.754;9.982;2023-05-07T10:59:51;3.80;;;2.58;;
8044;SDS011;4065;48.754;9.982;2023-05-07T11:03:15;4.68;;;2.70;;
8044;SDS011;4065;48.754;9.982;2023-05-07T11:06:39;4.15;;;2.65;;
8044;SDS011;4065;48.754;9.982;2023-05-07T11:10:02;2.75;;;2.03;;
8044;SDS011;4065;48.754;9.982;2023-05-07T11:13:41;3.03;;;2.03;;
8044;SDS011;4065;48.754;9.982;2023-05-07T11:17:05;3.70;;;2.40;;
8044;SDS011;4065;48.754;9.982;2023-05-07T11:20:47;3.33;;;2.28;;
8044;SDS011;4065;48.754;9.982;2023-05-07T11:24:13;3.88;;;2.17;;
8044;SDS011;4065;48.754;9.982;2023-05-07T11:27:39;2.10;;;1.98;;
8044;SDS011;4065;48.754;9.982;2023-05-07T11:31:05;3.97;;;2.55;;
8044;SDS011;4065;48.754;9.982;2023-05-07T11:34:29;2.50;;;2.22;;
8044;SDS011;4065;48.754;9.982;2023-05-07T11:37:57;7.15;;;2.97;;
8044;SDS011;4065;48.754;9.982;2023-05-07T11:41:20;4.53;;;2.67;;
8044;SDS011;4065;48.754;9.982;2023-05-07T11:44:44;3.72;;;2.70;;
8044;SDS011;4065;48.754;9.982;2023-05-07T11:48:06;2.17;;;1.95;;
8044;SDS011;4065;48.754;9.982;2023-05-07T11:51:36;2.70;;;2.42;;
8044;SDS011;4065;48.754;9.982;2023-05-07T11:55:02;3.88;;;2.25;;
8044;SDS011;4065;48.754;9.982;2023-05-07T11:58:30;3.30;;;2.20;;
8044;SDS011;4065;48.754;9.982;2023-05-07T12:01:56;3.03;;;2.00;;
8044;SDS011;4065;48.754;9.982;2023-05-07T12:05:19;3.35;;;2.70;;
8044;SDS011;4065;48.754;9.982;2023-05-07T12:08:43;4.55;;;2.50;;
8044;SDS011;4065;48.754;9.982;2023-05-07T12:12:06;3.67;;;2.22;;
8044;SDS011;4065;48.754;9.982;2023-05-07T12:15:28;7.20;;;2.40;;
8044;SDS011;4065;48.754;9.982;2023-05-07T12:18:50;4.45;;;2.53;;
8044;SDS011;4065;48.754;9.982;2023-05-07T12:22:15;6.78;;;2.60;;
8044;SDS011;4065;48.754;9.982;2023-05-07T12:25:39;4.28;;;2.30;;
8044;SDS011;4065;48.754;9.982;2023-05-07T12:29:07;2.30;;;2.10;;
8044;SDS011;4065;48.754;9.982;2023-05-07T12:32:34;4.30;;;2.30;;
8044;SDS011;4065;48.754;9.982;2023-05-07T12:35:58;3.58;;;2.15;;
8044;SDS011;4065;48.754;9.982;2023-05-07T12:39:24;3.47;;;2.28;;
8044;SDS011;4065;48.754;9.982;2023-05-07T12:43:00;2.83;;;2.30;;
8044;SDS011;4065;48.754;9.982;2023-05-07T12:46:22;2.70;;;2.40;;
8044;SDS011;4065;48.754;9.982;2023-05-07T12:49:44;3.03;;;2.35;;
8044;SDS011;4065;48.754;9.982;2023-05-07T12:53:07;4.35;;;2.80;;
8044;SDS011;4065;48.754;9.982;2023-05-07T12:56:31;3.38;;;2.38;;
8044;SDS011;4065;48.754;9.982;2023-05-07T12:59:57;4.30;;;2.42;;
8044;SDS011;4065;48.754;9.982;2023-05-07T13:03:22;3.67;;;2.15;;
8044;SDS011;4065;48.754;9.982;2023-05-07T13:06:46;2.97;;;2.20;;
8044;SDS011;4065;48.754;9.982;2023-05-07T13:10:09;2.92;;;2.40;;
8044;SDS011;4065;48.754;9.982;2023-05-07T13:13:31;2.83;;;2.42;;
8044;SDS011;4065;48.754;9.982;2023-05-07T13:16:55;3.10;;;2.50;;
8044;SDS011;4065;48.754;9.982;2023-05-07T13:20:17;2.78;;;2.13;;
8044;SDS011;4065;48.754;9.982;2023-05-07T13:23:41;4.97;;;2.53;;
8044;SDS011;4065;48.754;9.982;2023-05-07T13:27:03;4.45;;;2.42;;
8044;SDS011;4065;48.754;9.982;2023-05-07T13:30:25;2.58;;;2.35;;
8044;SDS011;4065;48.754;9.982;2023-05-07T13:33:48;5.07;;;2.45;;
8044;SDS011;4065;48.754;9.982;2023-05-07T13:37:11;2.35;;;2.13;;
8044;SDS011;4065;48.754;9.982;2023-05-07T13:40:32;3.85;;;2.40;;
8044;SDS011;4065;48.754;9.982;2023-05-07T13:43:55;3.55;;;2.42;;
8044;SDS011;4065;48.754;9.982;2023-05-07T13:47:17;4.93;;;2.50;;
8044;SDS011;4065;48.754;9.982;2023-05-07T13:50:43;4.93;;;2.72;;
8044;SDS011;4065;48.754;9.982;2023-05-07T13:54:04;5.30;;;3.08;;
8044;SDS011;4065;48.754;9.982;2023-05-07T13:57:29;4.05;;;2.33;;
8044;SDS011;4065;48.754;9.982;2023-05-07T14:00:51;2.97;;;2.28;;
8044;SDS011;4065;48.754;9.982;2023-05-07T14:04:13;3.03;;;2.50;;
8044;SDS011;4065;48.754;9.982;2023-05-07T14:07:36;4.03;;;2.70;;
8044;SDS011;4065;48.754;9.982;2023-05-07T14:10:58;2.70;;;2.20;;
8044;SDS011;4065;48.754;9.982;2023-05-07T14:14:20;3.60;;;2.20;;
8044;SDS011;4065;48.754;9.982;2023-05-07T14:17:45;2.63;;;2.38;;
8044;SDS011;4065;48.754;9.982;2023-05-07T14:21:07;2.33;;;2.13;;
8044;SDS011;4065;48.754;9.982;2023-05-07T14:24:31;4.97;;;2.45;;
8044;SDS011;4065;48.754;9.982;2023-05-07T14:27:53;2.70;;;2.50;;
8044;SDS011;4065;48.754;9.982;2023-05-07T14:31:15;3.65;;;2.60;;
8044;SDS011;4065;48.754;9.982;2023-05-07T14:34:40;4.20;;;2.40;;
8044;SDS011;4065;48.754;9.982;2023-05-07T14:38:02;3.17;;;2.40;;
8044;SDS011;4065;48.754;9.982;2023-05-07T14:41:26;5.57;;;2.53;;
8044;SDS011;4065;48.754;9.982;2023-05-07T14:44:48;2.80;;;2.47;;
8044;SDS011;4065;48.754;9.982;2023-05-07T14:48:10;3.85;;;2.35;;
8044;SDS011;4065;48.754;9.982;2023-05-07T14:51:35;4.45;;;2.33;;
8044;SDS011;4065;48.754;9.982;2023-05-07T14:55:00;5.25;;;2.30;;
8044;SDS011;4065;48.754;9.982;2023-05-07T14:58:25;3.60;;;2.72;;
8044;SDS011;4065;48.754;9.982;2023-05-07T15:01:48;4.47;;;2.70;;
8044;SDS011;4065;48.754;9.982;2023-05-07T15:05:10;3.63;;;2.47;;
8044;SDS011;4065;48.754;9.982;2023-05-07T15:08:32;3.88;;;2.42;;
8044;SDS011;4065;48.754;9.982;2023-05-07T15:11:55;5.13;;;2.40;;
8044;SDS011;4065;48.754;9.982;2023-05-07T15:15:22;2.30;;;2.10;;
8044;SDS011;4065;48.754;9.982;2023-05-07T15:18:44;4.28;;;2.20;;
8044;SDS011;4065;48.754;9.982;2023-05-07T15:22:06;3.38;;;2.60;;
8044;SDS011;4065;48.754;9.982;2023-05-07T15:25:28;3.05;;;2.45;;
8044;SDS011;4065;48.754;9.982;2023-05-07T15:28:51;2.80;;;2.55;;
8044;SDS011;4065;48.754;9.982;2023-05-07T15:32:14;2.88;;;2.35;;
8044;SDS011;4065;48.754;9.982;2023-05-07T15:35:36;3.63;;;2.45;;
8044;SDS011;4065;48.754;9.982;2023-05-07T15:38:59;3.28;;;2.92;;
8044;SDS011;4065;48.754;9.982;2023-05-07T15:42:22;3.83;;;2.65;;
8044;SDS011;4065;48.754;9.982;2023-05-07T15:45:48;3.53;;;2.72;;
8044;SDS011;4065;48.754;9.982;2023-05-07T15:49:11;4.32;;;2.40;;
8044;SDS011;4065;48.754;9.982;2023-05-07T15:52:33;2.92;;;2.47;;
8044;SDS011;4065;48.754;9.982;2023-05-07T15:55:58;2.50;;;2.30;;
8044;SDS011;4065;48.754;9.982;2023-05-07T15:59:20;2.65;;;2.45;;
8044;SDS011;4065;48.754;9.982;2023-05-07T16:02:42;2.88;;;2.00;;
8044;SDS011;4065;48.754;9.982;2023-05-07T16:06:06;5.80;;;2.38;;
8044;SDS011;4065;48.754;9.982;2023-05-07T16:09:30;3.92;;;2.00;;
8044;SDS011;4065;48.754;9.982;2023-05-07T16:12:52;3.80;;;2.20;;
8044;SDS011;4065;48.754;9.982;2023-05-07T16:16:16;2.38;;;2.10;;
8044;SDS011;4065;48.754;9.982;2023-05-07T16:19:38;3.28;;;2.00;;
8044;SDS011;4065;48.754;9.982;2023-05-07T16:23:01;2.90;;;2.30;;
8044;SDS011;4065;48.754;9.982;2023-05-07T16:26:25;2.50;;;2.30;;
8044;SDS011;4065;48.754;9.982;2023-05-07T16:29:47;2.60;;;2.40;;
8044;SDS011;4065;48.754;9.982;2023-05-07T16:33:09;3.03;;;2.00;;
8044;SDS011;4065;48.754;9.982;2023-05-07T16:36:31;2.55;;;2.35;;
8044;SDS011;4065;48.754;9.982;2023-05-07T16:39:55;2.40;;;2.20;;
8044;SDS011;4065;48.754;9.982;2023-05-07T16:43:20;2.92;;;2.20;;
8044;SDS011;4065;48.754;9.982;2023-05-07T16:46:41;2.30;;;2.10;;
8044;SDS011;4065;48.754;9.982;2023-05-07T16:50:04;3.10;;;2.22;;
8044;SDS011;4065;48.754;9.982;2023-05-07T16:53:27;2.42;;;2.22;;
8044;SDS011;4065;48.754;9.982;2023-05-07T16:56:50;2.70;;;2.17;;
8044;SDS011;4065;48.754;9.982;2023-05-07T17:00:13;2.95;;;2.30;;
8044;SDS011;4065;48.754;9.982;2023-05-07T17:03:36;5.10;;;3.92;;
8044;SDS011;4065;48.754;9.982;2023-05-07T17:06:58;2.95;;;2.72;;
8044;SDS011;4065;48.754;9.982;2023-05-07T17:10:20;2.85;;;2.60;;
8044;SDS011;4065;48.754;9.982;2023-05-07T17:13:44;3.20;;;2.20;;
8044;SDS011;4065;48.754;9.982;2023-05-07T17:17:06;3.20;;;2.55;;
8044;SDS011;4065;48.754;9.982;2023-05-07T17:20:28;2.95;;;2.60;;
8044;SDS011;4065;48.754;9.982;2023-05-07T17:23:50;3.00;;;2.70;;
8044;SDS011;4065;48.754;9.982;2023-05-07T17:27:12;4.00;;;2.80;;
8044;SDS011;4065;48.754;9.982;2023-05-07T17:30:35;3.53;;;2.67;;
8044;SDS011;4065;48.754;9.982;2023-05-07T17:33:57;3.75;;;2.67;;
8044;SDS011;4065;48.754;9.982;2023-05-07T17:37:19;3.85;;;2.78;;
8044;SDS011;4065;48.754;9.982;2023-05-07T17:40:41;4.53;;;3.10;;
8044;SDS011;4065;48.754;9.982;2023-05-07T17:44:03;4.53;;;3.08;;
8044;SDS011;4065;48.754;9.982;2023-05-07T17:47:26;5.22;;;3.53;;
8044;SDS011;4065;48.754;9.982;2023-05-07T17:50:48;3.50;;;3.20;;
8044;SDS011;4065;48.754;9.982;2023-05-07T17:54:10;6.47;;;3.85;;
8044;SDS011;4065;48.754;9.982;2023-05-07T17:57:32;5.43;;;4.38;;
8044;SDS011;4065;48.754;9.982;2023-05-07T18:00:56;6.85;;;5.60;;
8044;SDS011;4065;48.754;9.982;2023-05-07T18:04:19;8.20;;;5.80;;
8044;SDS011;4065;48.754;9.982;2023-05-07T18:07:43;8.65;;;6.97;;
8044;SDS011;4065;48.754;9.982;2023-05-07T18:11:05;6.47;;;4.70;;
8044;SDS011;4065;48.754;9.982;2023-05-07T18:14:27;11.63;;;4.90;;
8044;SDS011;4065;48.754;9.982;2023-05-07T18:17:49;5.30;;;4.50;;
8044;SDS011;4065;48.754;9.982;2023-05-07T18:21:12;6.53;;;4.82;;
8044;SDS011;4065;48.754;9.982;2023-05-07T18:24:38;8.10;;;4.57;;
8044;SDS011;4065;48.754;9.982;2023-05-07T18:28:00;5.10;;;4.60;;
8044;SDS011;4065;48.754;9.982;2023-05-07T18:31:22;7.03;;;4.13;;
8044;SDS011;4065;48.754;9.982;2023-05-07T18:34:43;5.70;;;5.20;;
8044;SDS011;4065;48.754;9.982;2023-05-07T18:38:07;6.35;;;5.72;;
8044;SDS011;4065;48.754;9.982;2023-05-07T18:41:29;9.52;;;8.05;;
8044;SDS011;4065;48.754;9.982;2023-05-07T18:44:51;5.10;;;4.57;;
8044;SDS011;4065;48.754;9.982;2023-05-07T18:48:13;7.10;;;6.40;;
8044;SDS011;4065;48.754;9.982;2023-05-07T18:51:36;12.00;;;10.48;;
8044;SDS011;4065;48.754;9.982;2023-05-07T18:54:59;7.63;;;6.60;;
8044;SDS011;4065;48.754;9.982;2023-05-07T18:58:21;5.97;;;5.22;;
8044;SDS011;4065;48.754;9.982;2023-05-07T19:01:43;6.35;;;5.72;;
8044;SDS011;4065;48.754;9.982;2023-05-07T19:05:05;9.57;;;5.97;;
8044;SDS011;4065;48.754;9.982;2023-05-07T19:08:28;6.68;;;5.97;;
8044;SDS011;4065;48.754;9.982;2023-05-07T19:11:51;6.53;;;5.93;;
8044;SDS011;4065;48.754;9.982;2023-05-07T19:15:13;6.63;;;5.80;;
8044;SDS011;4065;48.754;9.982;2023-05-07T19:18:35;6.45;;;5.85;;
8044;SDS011;4065;48.754;9.982;2023-05-07T19:21:57;6.93;;;5.68;;
8044;SDS011;4065;48.754;9.982;2023-05-07T19:25:19;9.57;;;6.32;;
8044;SDS011;4065;48.754;9.982;2023-05-07T19:28:43;8.18;;;6.85;;
8044;SDS011;4065;48.754;9.982;2023-05-07T19:32:05;8.63;;;6.63;;
8044;SDS011;4065;48.754;9.982;2023-05-07T19:35:27;6.93;;;6.22;;
8044;SDS011;4065;48.754;9.982;2023-05-07T19:38:50;7.00;;;5.95;;
8044;SDS011;4065;48.754;9.982;2023-05-07T19:42:14;8.70;;;7.45;;
8044;SDS011;4065;48.754;9.982;2023-05-07T19:45:37;8.75;;;6.30;;
8044;SDS011;4065;48.754;9.982;2023-05-07T19:49:02;7.00;;;6.40;;
8044;SDS011;4065;48.754;9.982;2023-05-07T19:52:24;6.53;;;5.60;;
8044;SDS011;4065;48.754;9.982;2023-05-07T19:55:46;6.97;;;5.13;;
8044;SDS011;4065;48.754;9.982;2023-05-07T19:59:08;7.88;;;5.88;;
8044;SDS011;4065;48.754;9.982;2023-05-07T20:02:31;8.48;;;5.65;;
8044;SDS011;4065;48.754;9.982;2023-05-07T20:05:54;8.38;;;5.65;;
8044;SDS011;4065;48.754;9.982;2023-05-07T20:09:15;6.05;;;5.05;;
8044;SDS011;4065;48.754;9.982;2023-05-07T20:12:37;5.60;;;5.10;;
8044;SDS011;4065;48.754;9.982;2023-05-07T20:15:59;7.00;;;5.50;;
8044;SDS011;4065;48.754;9.982;2023-05-07T20:19:23;5.43;;;4.93;;
8044;SDS011;4065;48.754;9.982;2023-05-07T20:22:45;5.30;;;4.80;;
8044;SDS011;4065;48.754;9.982;2023-05-07T20:26:07;6.07;;;4.43;;
8044;SDS011;4065;48.754;9.982;2023-05-07T20:29:29;4.60;;;4.20;;
8044;SDS011;4065;48.754;9.982;2023-05-07T20:32:51;5.20;;;4.07;;
8044;SDS011;4065;48.754;9.982;2023-05-07T20:36:14;4.60;;;4.00;;
8044;SDS011;4065;48.754;9.982;2023-05-07T20:39:36;4.70;;;4.30;;
8044;SDS011;4065;48.754;9.982;2023-05-07T20:42:57;8.00;;;5.63;;
8044;SDS011;4065;48.754;9.982;2023-05-07T20:46:19;5.47;;;5.07;;
8044;SDS011;4065;48.754;9.982;2023-05-07T20:49:41;6.32;;;5.35;;
8044;SDS011;4065;48.754;9.982;2023-05-07T20:53:04;4.93;;;4.45;;
8044;SDS011;4065;48.754;9.982;2023-05-07T20:56:26;5.22;;;4.72;;
8044;SDS011;4065;48.754;9.982;2023-05-07T20:59:48;5.63;;;5.13;;
8044;SDS011;4065;48.754;9.982;2023-05-07T21:03:10;6.38;;;5.43;;
8044;SDS011;4065;48.754;9.982;2023-05-07T21:06:32;6.93;;;4.68;;